createdAt,value
2018-01-31T01:52:20.846Z,1.50
2018-01-31T01:54:24.954Z,1.53
2018-01-31T01:56:52.500Z,1.03
2018-01-31T01:59:20.066Z,1.77
2018-01-31T02:01:47.636Z,1.97
2018-01-31T02:04:15.187Z,1.30
2018-01-31T02:06:42.766Z,1.30
2018-01-31T02:09:11.284Z,1.53
2018-01-31T02:11:38.888Z,1.43
2018-01-31T02:14:06.448Z,1.40
2018-01-31T02:16:34.040Z,1.60
2018-01-31T02:19:02.464Z,1.40
2018-01-31T02:21:30.072Z,1.83
2018-01-31T02:23:58.390Z,1.47
2018-01-31T02:26:26.036Z,1.10
2018-01-31T02:28:54.416Z,1.33
2018-01-31T02:31:22.002Z,1.47
2018-01-31T02:33:49.548Z,1.33
2018-01-31T02:36:17.144Z,1.40
2018-01-31T02:38:56.728Z,1.57
2018-01-31T02:41:24.298Z,1.37
2018-01-31T02:43:51.875Z,1.47
2018-01-31T02:46:19.423Z,1.07
2018-01-31T02:48:47.025Z,0.90
2018-01-31T02:51:14.595Z,1.30
2018-01-31T02:53:42.166Z,1.17
2018-01-31T02:56:10.533Z,1.27
2018-01-31T02:58:38.187Z,1.07
2018-01-31T03:01:05.734Z,1.20
2018-01-31T03:03:34.850Z,1.10
2018-01-31T03:06:03.184Z,1.10
2018-01-31T03:08:30.816Z,1.20
2018-01-31T03:10:58.368Z,1.00
2018-01-31T03:13:26.688Z,1.00
2018-01-31T03:15:54.271Z,1.50
2018-01-31T03:18:21.815Z,1.07
2018-01-31T03:20:49.414Z,0.90
2018-01-31T03:23:17.727Z,1.13
2018-01-31T03:25:45.282Z,1.50
2018-01-31T03:28:12.879Z,0.90
2018-01-31T03:30:40.503Z,1.10
2018-01-31T03:33:08.055Z,0.90
2018-01-31T03:35:35.622Z,0.70
2018-01-31T03:38:03.181Z,1.40
2018-01-31T03:40:30.765Z,0.87
2018-01-31T03:42:58.401Z,1.23
2018-01-31T03:45:25.989Z,1.20
2018-01-31T03:47:53.541Z,0.77
2018-01-31T03:50:21.145Z,1.00
2018-01-31T03:52:49.465Z,0.93
2018-01-31T03:55:17.097Z,0.90
2018-01-31T03:57:45.433Z,0.90
2018-01-31T04:00:13.003Z,0.87
2018-01-31T04:02:40.648Z,1.13
2018-01-31T04:05:08.211Z,0.90
2018-01-31T04:07:35.835Z,0.80
2018-01-31T04:10:03.501Z,1.00
2018-01-31T04:12:31.084Z,1.10
2018-01-31T04:14:58.646Z,0.97
2018-01-31T04:17:26.493Z,0.87
2018-01-31T04:19:53.987Z,0.70
2018-01-31T04:22:21.506Z,1.10
2018-01-31T04:24:49.076Z,0.73
2018-01-31T04:27:16.635Z,0.73
2018-01-31T04:29:44.231Z,0.80
2018-01-31T04:32:11.953Z,0.70
2018-01-31T04:34:39.529Z,0.70
2018-01-31T04:37:07.101Z,0.73
2018-01-31T04:39:34.933Z,1.10
2018-01-31T04:42:02.493Z,0.70
2018-01-31T04:44:30.088Z,0.90
2018-01-31T04:46:57.623Z,0.90
2018-01-31T04:49:26.859Z,0.60
2018-01-31T04:51:54.433Z,0.80
2018-01-31T04:54:22.785Z,0.67
2018-01-31T04:56:50.505Z,1.00
2018-01-31T04:59:18.075Z,0.73
2018-01-31T05:01:45.657Z,0.57
2018-01-31T05:04:13.249Z,0.87
2018-01-31T05:06:41.577Z,0.70
2018-01-31T05:09:09.173Z,0.80
2018-01-31T05:11:36.743Z,0.70
2018-01-31T05:14:04.357Z,0.80
2018-01-31T05:16:31.949Z,0.90
2018-01-31T05:18:59.491Z,0.70
2018-01-31T05:21:27.073Z,0.80
2018-01-31T05:23:54.638Z,0.93
2018-01-31T05:26:22.312Z,0.50
2018-01-31T05:28:49.841Z,0.70
2018-01-31T05:31:17.470Z,0.83
2018-01-31T05:33:45.043Z,0.90
2018-01-31T05:36:12.589Z,0.60
2018-01-31T05:38:40.153Z,0.63
2018-01-31T05:41:07.705Z,0.60
2018-01-31T05:43:35.347Z,0.70
2018-01-31T05:46:03.684Z,0.60
2018-01-31T05:48:31.239Z,0.70
2018-01-31T05:50:59.105Z,0.80
2018-01-31T05:53:26.743Z,0.60
2018-01-31T05:55:54.277Z,0.67
2018-01-31T05:58:22.055Z,0.70
2018-01-31T06:00:49.595Z,0.67
2018-01-31T06:03:17.188Z,0.60
2018-01-31T06:05:44.866Z,0.60
2018-01-31T06:08:12.457Z,0.50
2018-01-31T06:10:40.010Z,0.70
2018-01-31T06:13:07.545Z,0.60
2018-01-31T06:15:35.127Z,0.60
2018-01-31T06:18:02.847Z,0.50
2018-01-31T06:20:30.431Z,0.70
2018-01-31T06:22:57.977Z,0.90
2018-01-31T06:25:25.599Z,0.60
2018-01-31T06:27:53.934Z,0.60
2018-01-31T06:30:21.473Z,0.50
2018-01-31T06:32:49.069Z,0.50
2018-01-31T06:35:16.678Z,0.60
2018-01-31T06:37:44.555Z,0.50
2018-01-31T06:40:12.156Z,0.50
2018-01-31T06:42:39.705Z,0.60
2018-01-31T06:45:07.301Z,0.50
2018-01-31T06:47:34.945Z,0.50
2018-01-31T06:50:02.503Z,0.80
2018-01-31T06:52:30.858Z,0.60
2018-01-31T06:54:58.483Z,0.70
2018-01-31T06:57:27.044Z,0.40
2018-01-31T06:59:55.360Z,0.60
2018-01-31T07:02:23.046Z,0.73
2018-01-31T07:04:50.769Z,0.70
2018-01-31T07:07:18.304Z,1.57
2018-01-31T07:09:46.673Z,1.17
2018-01-31T07:12:15.016Z,1.33
2018-01-31T07:14:42.548Z,1.17
2018-01-31T07:17:10.118Z,0.93
2018-01-31T07:19:37.736Z,0.60
2018-01-31T07:22:06.114Z,0.97
2018-01-31T07:24:34.451Z,1.40
2018-01-31T07:27:02.030Z,1.90
2018-01-31T07:29:30.562Z,1.60
2018-01-31T07:31:58.094Z,1.00
2018-01-31T07:34:25.728Z,1.27
2018-01-31T07:36:53.452Z,0.90
2018-01-31T07:39:21.006Z,1.73
2018-01-31T07:41:48.870Z,1.50
2018-01-31T07:44:16.432Z,1.20
2018-01-31T07:46:44.046Z,1.47
2018-01-31T07:49:12.400Z,1.30
2018-01-31T07:51:39.942Z,1.50
2018-01-31T07:54:07.514Z,1.20
2018-01-31T07:56:35.130Z,1.00
2018-01-31T07:59:03.436Z,1.33
2018-01-31T08:01:31.074Z,1.70
2018-01-31T08:03:58.794Z,0.90
2018-01-31T08:06:26.466Z,1.20
2018-01-31T08:08:54.068Z,0.80
2018-01-31T08:11:21.674Z,2.00
2018-01-31T08:13:49.251Z,1.97
2018-01-31T08:16:16.805Z,1.47
2018-01-31T08:18:44.356Z,1.40
2018-01-31T08:21:12.184Z,1.80
2018-01-31T08:23:39.810Z,1.50
2018-01-31T08:26:08.242Z,1.30
2018-01-31T08:28:35.847Z,1.50
2018-01-31T08:31:04.166Z,1.47
2018-01-31T08:33:31.732Z,1.07
2018-01-31T08:35:59.692Z,0.93
2018-01-31T08:38:27.245Z,1.20
2018-01-31T08:40:55.017Z,1.60
2018-01-31T08:43:22.639Z,1.70
2018-01-31T08:45:50.954Z,1.47
2018-01-31T08:48:18.516Z,1.80
2018-01-31T08:50:46.116Z,1.70
2018-01-31T08:53:13.674Z,1.50
2018-01-31T08:55:41.249Z,1.57
2018-01-31T08:58:09.871Z,1.30
2018-01-31T09:00:37.470Z,3.40
2018-01-31T09:03:05.046Z,2.57
2018-01-31T09:05:32.773Z,2.10
2018-01-31T09:08:00.395Z,2.50
2018-01-31T09:10:27.970Z,1.13
2018-01-31T09:12:55.525Z,1.47
2018-01-31T09:15:23.633Z,1.30
2018-01-31T09:17:51.211Z,1.50
2018-01-31T09:20:20.278Z,1.27
2018-01-31T09:22:47.907Z,1.70
2018-01-31T09:25:15.473Z,1.40
2018-01-31T09:27:43.053Z,1.50
2018-01-31T09:30:10.663Z,1.50
2018-01-31T09:32:38.981Z,1.03
2018-01-31T09:35:06.535Z,0.90
2018-01-31T09:37:34.141Z,0.67
2018-01-31T09:40:01.699Z,1.10
2018-01-31T09:42:29.283Z,1.03
2018-01-31T09:44:57.689Z,2.13
2018-01-31T09:47:25.259Z,3.20
2018-01-31T09:49:52.803Z,2.23
2018-01-31T09:52:20.515Z,2.27
2018-01-31T09:54:48.086Z,1.73
2018-01-31T09:57:15.638Z,1.40
2018-01-31T09:59:43.491Z,1.50
2018-01-31T10:02:11.121Z,1.07
2018-01-31T10:04:38.747Z,1.10
2018-01-31T10:07:07.119Z,1.40
2018-01-31T10:09:35.452Z,0.60
2018-01-31T10:12:03.014Z,1.00
2018-01-31T10:14:30.620Z,1.13
2018-01-31T10:16:58.273Z,0.80
2018-01-31T10:19:25.861Z,0.80
2018-01-31T10:21:54.189Z,1.27
2018-01-31T10:24:21.935Z,1.07
2018-01-31T10:26:49.549Z,1.43
2018-01-31T10:29:18.017Z,0.90
2018-01-31T10:31:45.595Z,1.03
2018-01-31T10:34:14.037Z,0.80
2018-01-31T10:36:41.594Z,0.80
2018-01-31T10:39:09.201Z,1.40
2018-01-31T10:41:37.631Z,1.30
2018-01-31T10:44:05.185Z,1.63
2018-01-31T10:46:32.729Z,1.47
2018-01-31T10:49:00.381Z,0.90
2018-01-31T10:51:27.925Z,1.23
2018-01-31T10:57:28.820Z,0.90
2018-01-31T10:58:51.475Z,0.90
2018-01-31T11:01:19.070Z,0.83
2018-01-31T11:03:47.393Z,1.03
2018-01-31T11:06:14.957Z,0.70
2018-01-31T11:08:42.555Z,0.67
2018-01-31T11:11:10.111Z,0.70
2018-01-31T11:13:38.539Z,0.50
2018-01-31T11:16:06.139Z,1.10
2018-01-31T11:18:33.679Z,0.67
2018-01-31T11:21:01.357Z,0.50
2018-01-31T11:23:29.079Z,0.57
2018-01-31T11:25:56.639Z,0.73
2018-01-31T11:28:24.181Z,0.80
2018-01-31T11:30:51.804Z,0.67
2018-01-31T11:33:19.383Z,0.80
2018-01-31T11:35:47.689Z,0.63
2018-01-31T11:38:15.300Z,0.50
2018-01-31T11:40:42.846Z,0.80
2018-01-31T11:43:10.405Z,0.70
2018-01-31T11:45:38.202Z,0.60
2018-01-31T11:48:06.533Z,0.60
2018-01-31T11:50:34.124Z,0.67
2018-01-31T11:56:04.382Z,0.47
2018-01-31T11:58:32.717Z,0.70
2018-01-31T12:01:00.442Z,0.40
2018-01-31T12:03:28.022Z,0.50
2018-01-31T12:05:55.741Z,0.60
2018-01-31T12:08:26.978Z,0.60
2018-01-31T12:10:55.306Z,0.80
2018-01-31T12:13:49.617Z,0.60
2018-01-31T12:16:28.834Z,0.60
2018-01-31T12:19:08.252Z,0.60
2018-01-31T12:21:43.631Z,0.40
2018-01-31T12:24:23.232Z,0.40
2018-01-31T12:27:02.820Z,0.40
2018-01-31T12:29:41.295Z,0.63
2018-01-31T12:32:21.071Z,0.70
2018-01-31T12:35:00.526Z,0.40
2018-01-31T12:37:39.908Z,0.80
2018-01-31T12:40:06.969Z,0.60
2018-01-31T12:42:33.998Z,1.10
2018-01-31T12:45:01.050Z,0.73
2018-01-31T12:47:40.554Z,0.60
2018-01-31T12:50:20.692Z,0.67
2018-01-31T12:53:00.166Z,0.80
2018-01-31T12:55:39.640Z,0.60
2018-01-31T12:58:19.287Z,0.40
2018-01-31T13:00:58.677Z,0.60
2018-01-31T13:03:38.834Z,0.40
2018-01-31T13:06:18.331Z,0.60
2018-01-31T13:08:57.724Z,0.50
2018-01-31T13:11:37.044Z,0.40
2018-01-31T13:14:16.396Z,0.40
2018-01-31T13:16:55.766Z,0.50
2018-01-31T13:19:35.068Z,0.50
2018-01-31T13:22:14.456Z,0.87
2018-01-31T13:24:53.848Z,0.73
2018-01-31T13:27:41.206Z,0.50
2018-01-31T13:30:20.674Z,0.70
2018-01-31T13:33:05.752Z,0.50
2018-01-31T13:35:45.827Z,0.70
2018-01-31T13:38:25.320Z,0.93
2018-01-31T13:41:04.672Z,0.70
2018-01-31T13:43:44.702Z,0.80
2018-01-31T13:46:24.406Z,1.00
2018-01-31T13:49:03.876Z,0.70
2018-01-31T13:51:43.402Z,0.50
2018-01-31T13:54:22.672Z,0.90
2018-01-31T13:57:02.836Z,0.77
2018-01-31T13:59:43.056Z,0.60
2018-01-31T14:02:22.536Z,0.83
2018-01-31T14:05:01.908Z,0.73
2018-01-31T14:07:41.402Z,2.10
2018-01-31T14:10:21.900Z,0.80
2018-01-31T14:13:01.402Z,1.07
2018-01-31T14:15:41.738Z,0.80
2018-01-31T14:18:21.178Z,0.87
2018-01-31T14:21:01.086Z,1.03
2018-01-31T14:23:40.594Z,1.33
2018-01-31T14:26:20.856Z,0.80
2018-01-31T14:29:00.952Z,0.57
2018-01-31T14:31:40.559Z,0.50
2018-01-31T14:37:12.250Z,0.90
2018-01-31T14:39:39.308Z,0.80
2018-01-31T14:42:06.449Z,1.40
2018-01-31T14:44:33.500Z,0.77
2018-01-31T14:47:00.528Z,0.90
2018-01-31T14:49:28.614Z,1.87
2018-01-31T14:51:55.765Z,0.70
2018-01-31T14:54:22.880Z,0.90
2018-01-31T14:56:49.920Z,0.80
2018-01-31T14:59:17.928Z,0.70
2018-01-31T15:01:44.982Z,0.90
2018-01-31T15:04:12.051Z,1.03
2018-01-31T15:06:39.129Z,0.83
2018-01-31T15:09:06.174Z,0.63
2018-01-31T15:11:33.270Z,0.80
2018-01-31T15:14:00.331Z,1.00
2018-01-31T15:16:27.365Z,0.87
2018-01-31T15:18:54.519Z,0.90
2018-01-31T15:21:21.551Z,0.97
2018-01-31T15:23:48.651Z,0.70
2018-01-31T15:26:15.679Z,1.03
2018-01-31T15:28:42.747Z,0.80
2018-01-31T15:31:09.852Z,0.60
2018-01-31T15:33:36.967Z,0.87
2018-01-31T15:36:04.002Z,0.97
2018-01-31T15:38:32.588Z,0.83
2018-01-31T15:40:59.811Z,0.90
2018-01-31T15:43:26.937Z,0.73
2018-01-31T15:45:54.004Z,1.03
2018-01-31T15:48:21.176Z,1.03
2018-01-31T15:50:48.285Z,0.90
2018-01-31T15:53:15.519Z,0.80
2018-01-31T15:55:42.593Z,0.67
2018-01-31T15:58:09.779Z,0.70
2018-01-31T16:00:36.917Z,0.83
2018-01-31T16:03:03.959Z,1.20
2018-01-31T16:05:30.989Z,0.80
2018-01-31T16:07:58.077Z,1.87
2018-01-31T16:10:25.116Z,1.10
2018-01-31T16:12:52.182Z,1.20
2018-01-31T16:15:20.123Z,1.20
2018-01-31T16:17:48.483Z,1.07
2018-01-31T16:20:27.804Z,1.37
2018-01-31T16:22:55.459Z,0.90
2018-01-31T16:25:23.205Z,0.90
2018-01-31T16:28:02.429Z,1.13
2018-01-31T16:30:42.643Z,1.63
2018-01-31T16:33:21.895Z,1.10
2018-01-31T16:35:49.465Z,0.87
2018-01-31T16:38:17.795Z,1.17
2018-01-31T16:40:45.411Z,1.10
2018-01-31T16:43:14.442Z,1.37
2018-01-31T16:45:42.139Z,1.43
2018-01-31T16:48:09.707Z,1.73
2018-01-31T16:50:37.323Z,1.53
2018-01-31T16:53:05.351Z,1.53
2018-01-31T16:55:32.950Z,1.60
2018-01-31T16:58:00.549Z,1.93
2018-01-31T17:00:28.081Z,2.43
2018-01-31T17:02:55.659Z,1.70
2018-01-31T17:05:23.267Z,1.30
2018-01-31T17:07:52.257Z,2.07
2018-01-31T17:10:20.665Z,2.10
2018-01-31T17:12:48.201Z,2.40
2018-01-31T17:15:16.589Z,2.87
2018-01-31T17:17:44.181Z,2.00
2018-01-31T17:20:11.751Z,1.87
2018-01-31T17:22:39.345Z,2.20
2018-01-31T17:25:06.925Z,2.17
2018-01-31T17:27:34.517Z,2.13
2018-01-31T17:30:02.109Z,2.10
2018-01-31T17:32:29.665Z,2.47
2018-01-31T17:34:57.249Z,1.80
2018-01-31T17:37:25.583Z,1.77
2018-01-31T17:39:53.219Z,1.57
2018-01-31T17:42:21.471Z,2.60
2018-01-31T17:44:49.821Z,1.87
2018-01-31T17:47:17.407Z,2.57
2018-01-31T17:49:45.749Z,2.03
2018-01-31T17:52:13.318Z,2.00
2018-01-31T17:54:41.623Z,1.67
2018-01-31T17:57:09.991Z,2.30
2018-01-31T17:59:38.503Z,2.20
2018-01-31T18:02:06.125Z,1.80
2018-01-31T18:04:33.674Z,1.03
2018-01-31T18:07:01.453Z,1.03
2018-01-31T18:09:29.021Z,1.97
2018-01-31T18:11:57.585Z,2.17
2018-01-31T18:14:25.544Z,1.40
2018-01-31T18:16:53.226Z,1.40
2018-01-31T18:19:20.785Z,1.60
2018-01-31T18:21:48.347Z,1.40
2018-01-31T18:24:16.716Z,1.43
2018-01-31T18:26:44.305Z,1.37
2018-01-31T18:29:11.894Z,1.43
2018-01-31T18:31:39.679Z,1.40
2018-01-31T18:34:07.272Z,1.73
2018-01-31T18:36:35.612Z,1.40
2018-01-31T18:39:03.210Z,1.30
2018-01-31T18:41:31.530Z,1.00
2018-01-31T18:43:59.133Z,1.33
2018-01-31T18:46:26.928Z,1.43
2018-01-31T18:48:54.528Z,1.57
2018-01-31T18:51:22.146Z,1.50
2018-01-31T18:53:50.485Z,1.13
2018-01-31T18:56:18.218Z,1.13
2018-01-31T18:58:45.783Z,1.47
2018-01-31T19:01:14.240Z,1.73
2018-01-31T19:03:41.844Z,1.30
2018-01-31T19:06:09.479Z,0.83
2018-01-31T19:08:37.096Z,1.40
2018-01-31T19:11:04.875Z,1.80
2018-01-31T19:13:34.078Z,1.20
2018-01-31T19:16:01.666Z,1.27
2018-01-31T19:18:29.218Z,1.27
2018-01-31T19:20:56.838Z,1.30
2018-01-31T19:23:24.424Z,1.03
2018-01-31T19:25:52.042Z,0.90
2018-01-31T19:28:19.634Z,1.13
2018-01-31T19:30:48.011Z,1.50
2018-01-31T19:33:16.386Z,0.83
2018-01-31T19:35:44.879Z,1.00
2018-01-31T19:38:12.466Z,0.80
2018-01-31T19:40:40.118Z,1.40
2018-01-31T19:43:07.706Z,0.90
2018-01-31T19:45:35.460Z,1.30
2018-01-31T19:48:03.097Z,0.80
2018-01-31T19:50:30.678Z,1.57
2018-01-31T19:52:58.292Z,0.93
2018-01-31T19:55:26.717Z,1.00
2018-01-31T19:57:54.576Z,1.33
2018-01-31T20:00:22.202Z,1.00
2018-01-31T20:02:50.558Z,0.97
2018-01-31T20:05:18.284Z,0.70
2018-01-31T20:07:45.986Z,0.87
2018-01-31T20:10:13.620Z,1.00
2018-01-31T20:12:41.357Z,0.97
2018-01-31T20:15:09.052Z,2.50
2018-01-31T20:17:36.736Z,1.60
2018-01-31T20:20:04.453Z,1.50
2018-01-31T20:22:32.060Z,1.60
2018-01-31T20:24:59.656Z,1.00
2018-01-31T20:27:28.206Z,1.00
2018-01-31T20:29:55.860Z,1.33
2018-01-31T20:32:23.538Z,1.20
2018-01-31T20:34:52.686Z,1.30
2018-01-31T20:37:20.331Z,1.20
2018-01-31T20:39:47.954Z,1.70
2018-01-31T20:42:16.422Z,1.30
2018-01-31T20:44:44.385Z,1.10
2018-01-31T20:47:12.142Z,0.90
2018-01-31T20:49:39.916Z,1.00
2018-01-31T20:52:07.506Z,1.30
2018-01-31T20:54:35.874Z,1.73
2018-01-31T20:57:04.288Z,2.33
2018-01-31T20:59:32.047Z,2.87
2018-01-31T21:02:00.368Z,1.80
2018-01-31T21:04:28.020Z,2.07
2018-01-31T21:06:55.603Z,1.37
2018-01-31T21:09:23.186Z,2.27
2018-01-31T21:11:51.574Z,1.30
2018-01-31T21:14:19.198Z,1.00
2018-01-31T21:16:46.785Z,1.00
2018-01-31T21:19:15.269Z,1.73
2018-01-31T21:21:43.632Z,1.40
2018-01-31T21:24:11.179Z,0.83
2018-01-31T21:26:38.882Z,0.50
2018-01-31T21:29:06.446Z,0.50
2018-01-31T21:31:34.267Z,0.60
2018-01-31T21:34:01.847Z,0.60
2018-01-31T21:36:30.159Z,0.87
2018-01-31T21:38:57.890Z,0.60
2018-01-31T21:41:26.207Z,0.50
2018-01-31T21:43:53.814Z,0.60
2018-01-31T21:46:21.391Z,0.43
2018-01-31T21:48:48.965Z,0.50
2018-01-31T21:51:16.575Z,0.40
2018-01-31T21:53:44.171Z,0.80
2018-01-31T21:56:12.510Z,2.80
2018-01-31T21:58:40.972Z,1.50
2018-01-31T22:01:09.730Z,1.33
2018-01-31T22:03:37.327Z,1.00
2018-01-31T22:06:05.450Z,0.77
2018-01-31T22:08:33.818Z,1.13
2018-01-31T22:11:02.126Z,0.80
2018-01-31T22:13:29.710Z,1.20
2018-01-31T22:15:58.254Z,0.87
2018-01-31T22:18:25.985Z,1.00
2018-01-31T22:20:53.598Z,1.57
2018-01-31T22:23:21.334Z,1.17
2018-01-31T22:25:50.045Z,0.70
2018-01-31T22:28:17.629Z,0.80
2018-01-31T22:30:45.235Z,0.80
2018-01-31T22:33:12.799Z,0.63
2018-01-31T22:35:41.164Z,0.90
2018-01-31T22:38:08.732Z,0.90
2018-01-31T22:40:37.061Z,0.60
2018-01-31T22:43:04.815Z,1.13
2018-01-31T22:45:32.373Z,0.70
2018-01-31T22:48:00.045Z,0.70
2018-01-31T22:50:27.745Z,0.90
2018-01-31T22:52:55.354Z,0.60
2018-01-31T22:55:23.117Z,0.50
2018-01-31T22:57:50.737Z,0.80
2018-01-31T23:00:21.735Z,0.63
2018-01-31T23:02:49.333Z,0.70
2018-01-31T23:05:17.687Z,0.60
2018-01-31T23:07:45.317Z,0.70
2018-01-31T23:10:12.907Z,1.00
2018-01-31T23:12:46.049Z,0.70
2018-01-31T23:15:13.677Z,0.70
2018-01-31T23:17:46.743Z,0.50
2018-01-31T23:20:14.423Z,0.50
2018-01-31T23:22:41.987Z,0.80
2018-01-31T23:25:10.427Z,0.60
2018-01-31T23:27:38.907Z,0.47
2018-01-31T23:30:06.533Z,0.50
2018-01-31T23:32:34.290Z,0.50
2018-01-31T23:35:02.665Z,0.50
2018-01-31T23:37:31.091Z,0.53
2018-01-31T23:39:58.857Z,0.90
2018-01-31T23:42:26.412Z,1.20
2018-01-31T23:44:53.950Z,0.60
2018-01-31T23:47:21.508Z,0.53
2018-01-31T23:49:49.109Z,0.40
2018-01-31T23:52:16.707Z,0.40
2018-01-31T23:54:44.261Z,0.50
2018-01-31T23:57:11.807Z,0.53
2018-01-31T23:59:39.461Z,0.53
